This is the latest recevied weather packets stored in our database for station/object DF2AP-13. If no packets are shown the sender has not sent any weather packets the latest 10 day(s).
| Time | Temp. | Humidity | Pressure | Rain* | Wind** | Luminosity | Snow |
|---|---|---|---|---|---|---|---|
| 1777294674 | 16.67° C | 35% | 1023.7 hPa | - | - | - | - |
| 1777294074 | 16.67° C | 37% | 1023.8 hPa | - | - | - | - |
| 1777293474 | 16.67° C | 36% | 1023.9 hPa | - | - | - | - |
| 1777292874 | 16.11° C | 37% | 1023.9 hPa | - | - | - | - |
| 1777292274 | 16.67° C | 36% | 1024 hPa | - | - | - | - |
| 1777291674 | 16.67° C | 35% | 1024.1 hPa | - | - | - | - |
| 1777291074 | 17.22° C | 33% | 1024.2 hPa | - | - | - | - |
| 1777290474 | 17.22° C | 36% | 1024.2 hPa | - | - | - | - |
| 1777289874 | 17.78° C | 36% | 1023.9 hPa | - | - | - | - |
| 1777289275 | 17.22° C | 36% | 1024.3 hPa | - | - | - | - |
| 1777288675 | 16.67° C | 36% | 1024.3 hPa | - | - | - | - |
| 1777288074 | 16.11° C | 39% | 1024.4 hPa | - | - | - | - |
| 1777287474 | 16.11° C | 39% | 1024.7 hPa | - | - | - | - |
| 1777286874 | 15.56° C | 40% | 1024.9 hPa | - | - | - | - |
| 1777286274 | 16.11° C | 37% | 1024.7 hPa | - | - | - | - |
| 1777285674 | 16.11° C | 39% | 1024.8 hPa | - | - | - | - |
| 1777285074 | 15.56° C | 38% | 1024.9 hPa | - | - | - | - |
| 1777284474 | 16.11° C | 38% | 1024.9 hPa | - | - | - | - |
| 1777283874 | 15.56° C | 38% | 1025.2 hPa | - | - | - | - |
| 1777283276 | 15.56° C | 37% | 1025.2 hPa | - | - | - | - |
| 1777282674 | 15.56° C | 41% | 1025.3 hPa | - | - | - | - |
| 1777282074 | 14.44° C | 38% | 1025.5 hPa | - | - | - | - |
| 1777281474 | 14.44° C | 39% | 1025.5 hPa | - | - | - | - |
| 1777280874 | 14.44° C | 40% | 1025.8 hPa | - | - | - | - |
| 1777280274 | 14.44° C | 41% | 1025.8 hPa | - | - | - | - |
* Rain since midnight (hover to see other rain measurements)
** Current wind speed in m/s (hover to see current wind gust speed)